createdAt,value
2023-05-23T00:01:53.621Z,16.45
2023-05-23T00:04:20.690Z,16.53
2023-05-23T00:06:47.476Z,16.45
2023-05-23T00:09:14.655Z,16.17
2023-05-23T00:11:41.796Z,16.26
2023-05-23T00:14:08.625Z,16.30
2023-05-23T00:16:35.385Z,16.26
2023-05-23T00:19:02.061Z,16.28
2023-05-23T00:21:28.780Z,16.23
2023-05-23T00:23:55.452Z,16.13
2023-05-23T00:26:22.095Z,16.00
2023-05-23T00:28:48.746Z,16.05
2023-05-23T00:31:15.399Z,16.04
2023-05-23T00:33:42.310Z,16.10
2023-05-23T00:36:08.965Z,16.20
2023-05-23T00:38:35.637Z,16.15
2023-05-23T00:41:02.527Z,16.04
2023-05-23T00:43:29.382Z,15.92
2023-05-23T00:45:56.090Z,15.75
2023-05-23T00:48:22.867Z,15.64
2023-05-23T00:50:49.623Z,15.55
2023-05-23T00:53:16.570Z,15.64
2023-05-23T00:55:44.797Z,15.54
2023-05-23T00:58:11.855Z,15.59
2023-05-23T01:00:38.908Z,15.51
2023-05-23T01:03:05.660Z,15.62
2023-05-23T01:05:32.398Z,15.54
2023-05-23T01:07:59.129Z,15.39
2023-05-23T01:10:30.175Z,15.31
2023-05-23T01:13:24.263Z,15.22
2023-05-23T01:16:02.638Z,15.25
2023-05-23T01:18:48.004Z,15.44
2023-05-23T01:21:18.987Z,15.63
2023-05-23T01:23:54.724Z,15.61
2023-05-23T01:27:08.458Z,15.08
2023-05-23T01:29:45.688Z,15.31
2023-05-23T01:32:16.115Z,15.34
2023-05-23T01:34:42.974Z,15.38
2023-05-23T01:37:10.991Z,15.34
2023-05-23T01:39:38.916Z,15.35
2023-05-23T01:42:06.511Z,15.13
2023-05-23T01:44:35.023Z,15.42
2023-05-23T01:47:04.305Z,15.28
2023-05-23T01:49:32.645Z,15.27
2023-05-23T01:52:01.366Z,15.34
2023-05-23T01:54:29.889Z,15.00
2023-05-23T01:56:58.068Z,15.06
2023-05-23T01:59:24.785Z,15.28
2023-05-23T02:01:51.433Z,15.14
2023-05-23T02:04:18.387Z,15.20
2023-05-23T02:06:45.039Z,15.38
2023-05-23T02:09:11.838Z,15.55
2023-05-23T02:11:38.482Z,15.87
2023-05-23T02:14:06.331Z,15.52
2023-05-23T02:16:32.986Z,15.61
2023-05-23T02:18:59.681Z,15.46
2023-05-23T02:21:26.325Z,15.42
2023-05-23T02:23:52.971Z,15.33
2023-05-23T02:26:19.604Z,15.17
2023-05-23T02:28:46.246Z,15.32
2023-05-23T02:31:12.969Z,14.87
2023-05-23T02:33:39.746Z,15.21
2023-05-23T02:36:06.461Z,15.12
2023-05-23T02:38:33.130Z,14.98
2023-05-23T02:40:59.831Z,14.82
2023-05-23T02:43:26.496Z,14.87
2023-05-23T02:45:53.137Z,14.77
2023-05-23T02:48:20.314Z,15.03
2023-05-23T02:50:48.283Z,15.17
2023-05-23T02:53:15.082Z,14.92
2023-05-23T02:55:41.979Z,14.75
2023-05-23T02:58:08.989Z,14.80
2023-05-23T03:00:36.294Z,14.76
2023-05-23T03:03:03.100Z,14.76
2023-05-23T03:05:29.901Z,14.88
2023-05-23T03:07:56.564Z,14.97
2023-05-23T03:10:23.323Z,14.84
2023-05-23T03:12:49.961Z,14.77
2023-05-23T03:15:16.686Z,14.99
2023-05-23T03:17:43.522Z,14.67
2023-05-23T03:20:11.121Z,14.55
2023-05-23T03:22:37.843Z,14.71
2023-05-23T03:25:04.974Z,14.89
2023-05-23T03:27:31.643Z,14.99
2023-05-23T03:30:00.173Z,14.88
2023-05-23T03:32:26.884Z,14.46
2023-05-23T03:34:53.532Z,14.38
2023-05-23T03:37:20.216Z,14.45
2023-05-23T03:39:46.998Z,14.52
2023-05-23T03:42:13.703Z,14.54
2023-05-23T03:44:40.422Z,14.48
2023-05-23T03:47:07.340Z,14.64
2023-05-23T03:49:34.092Z,14.63
2023-05-23T03:52:00.767Z,14.80
2023-05-23T03:54:27.497Z,14.69
2023-05-23T03:56:54.148Z,14.54
2023-05-23T03:59:20.875Z,14.64
2023-05-23T04:01:47.585Z,14.77
2023-05-23T04:04:14.267Z,14.82
2023-05-23T04:06:41.036Z,14.95
2023-05-23T04:09:07.743Z,14.89
2023-05-23T04:11:34.595Z,14.83
2023-05-23T04:14:01.257Z,14.87
2023-05-23T04:16:27.900Z,14.63
2023-05-23T04:18:54.606Z,14.60
2023-05-23T04:21:21.417Z,14.60
2023-05-23T04:23:48.040Z,14.49
2023-05-23T04:26:14.729Z,14.49
2023-05-23T04:28:41.749Z,14.79
2023-05-23T04:31:08.616Z,14.55
2023-05-23T04:33:35.335Z,14.60
2023-05-23T04:36:03.517Z,14.55
2023-05-23T04:38:30.238Z,14.63
2023-05-23T04:40:56.931Z,14.64
2023-05-23T04:43:23.807Z,14.76
2023-05-23T04:45:50.480Z,14.54
2023-05-23T04:48:17.129Z,14.58
2023-05-23T04:50:43.806Z,14.75
2023-05-23T04:53:10.516Z,14.69
2023-05-23T04:55:37.261Z,14.69
2023-05-23T04:58:03.995Z,14.70
2023-05-23T05:00:30.699Z,15.09
2023-05-23T05:02:57.539Z,14.99
2023-05-23T05:05:24.365Z,14.88
2023-05-23T05:07:51.006Z,14.84
2023-05-23T05:10:17.624Z,14.78
2023-05-23T05:12:47.582Z,15.01
2023-05-23T05:15:14.252Z,15.29
2023-05-23T05:17:40.957Z,15.27
2023-05-23T05:20:08.369Z,15.05
2023-05-23T05:22:35.893Z,15.11
2023-05-23T05:25:03.132Z,15.17
2023-05-23T05:27:29.870Z,15.23
2023-05-23T05:29:58.227Z,15.40
2023-05-23T05:32:24.879Z,15.38
2023-05-23T05:34:51.529Z,15.42
2023-05-23T05:37:18.313Z,15.64
2023-05-23T05:39:44.960Z,16.06
2023-05-23T05:42:14.090Z,16.43
2023-05-23T05:44:40.937Z,16.63
2023-05-23T05:47:07.543Z,16.33
2023-05-23T05:49:34.233Z,17.15
2023-05-23T05:52:00.854Z,17.31
2023-05-23T05:54:27.553Z,17.20
2023-05-23T05:56:55.355Z,17.18
2023-05-23T05:59:22.053Z,17.40
2023-05-23T06:01:48.682Z,17.50
2023-05-23T06:04:15.413Z,17.75
2023-05-23T06:06:42.218Z,17.43
2023-05-23T06:09:08.868Z,17.53
2023-05-23T06:11:35.499Z,17.32
2023-05-23T06:14:02.167Z,17.62
2023-05-23T06:16:28.937Z,17.40
2023-05-23T06:18:55.704Z,17.91
2023-05-23T06:21:22.406Z,17.99
2023-05-23T06:23:49.069Z,17.67
2023-05-23T06:26:15.968Z,18.25
2023-05-23T06:28:42.843Z,18.18
2023-05-23T06:31:09.586Z,18.11
2023-05-23T06:33:36.642Z,18.47
2023-05-23T06:36:03.482Z,18.58
2023-05-23T06:38:32.004Z,18.43
2023-05-23T06:40:58.626Z,18.43
2023-05-23T06:43:25.283Z,18.63
2023-05-23T06:45:52.112Z,19.08
2023-05-23T06:48:18.791Z,19.18
2023-05-23T06:50:45.976Z,19.36
2023-05-23T06:53:12.688Z,19.34
2023-05-23T06:55:39.309Z,19.46
2023-05-23T06:58:05.964Z,19.55
2023-05-23T07:00:32.701Z,19.67
2023-05-23T07:02:59.410Z,19.62
2023-05-23T07:05:26.095Z,19.55
2023-05-23T07:07:52.797Z,19.68
2023-05-23T07:10:19.772Z,19.84
2023-05-23T07:12:47.350Z,20.08
2023-05-23T07:15:14.014Z,20.02
2023-05-23T07:17:41.164Z,20.34
2023-05-23T07:20:08.407Z,20.23
2023-05-23T07:22:35.282Z,20.35
2023-05-23T07:25:02.030Z,20.17
2023-05-23T07:27:28.940Z,20.72
2023-05-23T07:29:55.585Z,20.78
2023-05-23T07:32:22.259Z,21.05
2023-05-23T07:34:48.939Z,21.17
2023-05-23T07:37:15.624Z,21.02
2023-05-23T07:39:42.287Z,20.93
2023-05-23T07:42:09.152Z,21.34
2023-05-23T07:44:35.822Z,21.34
2023-05-23T07:47:02.830Z,21.20
2023-05-23T07:49:29.668Z,21.35
2023-05-23T07:51:56.309Z,21.69
2023-05-23T07:54:23.161Z,21.56
2023-05-23T07:56:49.818Z,21.54
2023-05-23T07:59:16.474Z,21.70
2023-05-23T08:01:43.288Z,21.70
2023-05-23T08:04:10.025Z,21.67
2023-05-23T08:06:37.536Z,21.64
2023-05-23T08:09:05.205Z,21.86
2023-05-23T08:11:31.834Z,22.11
2023-05-23T08:13:59.487Z,22.12
2023-05-23T08:16:27.407Z,22.49
2023-05-23T08:18:54.207Z,22.75
2023-05-23T08:21:21.040Z,22.54
2023-05-23T08:23:47.725Z,22.37
2023-05-23T08:26:14.363Z,21.88
2023-05-23T08:28:41.217Z,22.40
2023-05-23T08:31:08.007Z,22.79
2023-05-23T08:33:34.703Z,22.56
2023-05-23T08:36:01.398Z,22.72
2023-05-23T08:38:28.134Z,23.02
2023-05-23T08:40:56.562Z,23.13
2023-05-23T08:43:23.322Z,23.24
2023-05-23T08:45:51.970Z,23.30
2023-05-23T08:48:20.692Z,23.46
2023-05-23T08:50:48.854Z,23.13
2023-05-23T08:53:16.696Z,23.37
2023-05-23T08:55:43.680Z,23.39
2023-05-23T08:58:10.424Z,23.34
2023-05-23T09:00:37.298Z,23.33
2023-05-23T09:03:04.142Z,23.70
2023-05-23T09:05:30.973Z,23.77
2023-05-23T09:07:57.741Z,23.47
2023-05-23T09:10:24.458Z,23.85
2023-05-23T09:12:51.263Z,24.05
2023-05-23T09:15:17.911Z,23.99
2023-05-23T09:17:45.440Z,23.78
2023-05-23T09:20:14.362Z,23.74
2023-05-23T09:22:41.941Z,24.22
2023-05-23T09:25:08.823Z,24.28
2023-05-23T09:27:35.666Z,24.42
2023-05-23T09:30:10.681Z,24.17
2023-05-23T09:32:37.586Z,24.08
2023-05-23T09:35:08.660Z,24.32
2023-05-23T09:37:37.356Z,24.28
2023-05-23T09:40:09.224Z,24.48
2023-05-23T09:42:36.823Z,24.40
2023-05-23T09:45:04.863Z,24.53
2023-05-23T09:47:34.701Z,24.54
2023-05-23T09:50:01.336Z,24.79
2023-05-23T09:52:27.957Z,24.70
2023-05-23T09:54:54.772Z,24.60
2023-05-23T09:57:22.400Z,24.82
2023-05-23T09:59:53.376Z,24.74
2023-05-23T10:02:58.302Z,25.05
2023-05-23T10:05:27.802Z,24.96
2023-05-23T10:07:55.301Z,24.68
2023-05-23T10:10:22.046Z,24.91
2023-05-23T10:12:52.340Z,25.01
2023-05-23T10:15:19.679Z,24.61
2023-05-23T10:18:09.814Z,24.80
2023-05-23T10:20:39.805Z,24.78
2023-05-23T10:23:06.776Z,25.15
2023-05-23T10:25:33.791Z,25.30
2023-05-23T10:28:03.222Z,25.36
2023-05-23T10:30:31.603Z,25.33
2023-05-23T10:32:59.545Z,25.31
2023-05-23T10:35:50.966Z,25.23
2023-05-23T10:38:30.426Z,25.62
2023-05-23T10:41:31.677Z,25.51
2023-05-23T10:44:23.752Z,25.29
2023-05-23T10:46:55.689Z,25.05
2023-05-23T10:49:22.977Z,25.02
2023-05-23T10:51:51.424Z,25.15
2023-05-23T10:54:20.175Z,25.51
2023-05-23T10:56:46.900Z,25.61
2023-05-23T10:59:21.164Z,25.76
2023-05-23T11:01:51.192Z,25.80
2023-05-23T11:04:26.234Z,25.93
2023-05-23T11:06:55.310Z,26.09
2023-05-23T11:09:22.113Z,26.07
2023-05-23T11:11:55.578Z,26.02
2023-05-23T11:14:32.546Z,25.59
2023-05-23T11:17:16.377Z,25.48
2023-05-23T11:20:05.421Z,25.37
2023-05-23T11:22:33.309Z,25.08
2023-05-23T11:25:01.679Z,25.47
2023-05-23T11:27:31.629Z,25.66
2023-05-23T11:29:59.849Z,26.11
2023-05-23T11:32:29.085Z,26.44
2023-05-23T11:34:55.927Z,26.23
2023-05-23T11:37:22.882Z,26.43
2023-05-23T11:39:50.337Z,26.33
2023-05-23T11:42:16.998Z,26.57
2023-05-23T11:44:43.635Z,26.46
2023-05-23T11:47:10.311Z,26.50
2023-05-23T11:49:38.474Z,26.51
2023-05-23T11:52:06.308Z,26.59
2023-05-23T11:54:33.869Z,26.68
2023-05-23T11:57:02.199Z,26.90
2023-05-23T11:59:29.067Z,26.94
2023-05-23T12:01:56.189Z,26.70
2023-05-23T12:04:23.152Z,26.77
2023-05-23T12:06:50.386Z,26.63
2023-05-23T12:09:17.242Z,26.23
2023-05-23T12:11:45.038Z,26.12
2023-05-23T12:14:18.448Z,26.34
2023-05-23T12:16:46.199Z,26.64
2023-05-23T12:19:14.089Z,27.11
2023-05-23T12:21:48.229Z,26.81
2023-05-23T12:24:16.137Z,27.02
2023-05-23T12:26:51.639Z,27.02
2023-05-23T12:29:22.437Z,27.09
2023-05-23T12:31:50.279Z,26.64
2023-05-23T12:34:17.378Z,26.80
2023-05-23T12:36:49.190Z,26.98
2023-05-23T12:39:16.812Z,26.98
2023-05-23T12:41:44.681Z,27.01
2023-05-23T12:44:15.867Z,27.15
2023-05-23T12:46:42.582Z,27.25
2023-05-23T12:49:09.709Z,27.12
2023-05-23T12:51:36.842Z,27.03
2023-05-23T12:54:04.008Z,26.57
2023-05-23T12:56:30.730Z,26.72
2023-05-23T12:58:57.623Z,26.43
2023-05-23T13:01:24.324Z,26.69
2023-05-23T13:03:51.241Z,27.14
2023-05-23T13:06:17.973Z,27.17
2023-05-23T13:08:44.641Z,26.57
2023-05-23T13:11:11.394Z,26.70
2023-05-23T13:13:38.463Z,26.95
2023-05-23T13:16:05.536Z,27.00
2023-05-23T13:18:32.191Z,27.30
2023-05-23T13:20:58.910Z,27.28
2023-05-23T13:23:25.700Z,27.56
2023-05-23T13:25:53.285Z,27.36
2023-05-23T13:28:20.080Z,27.34
2023-05-23T13:30:47.293Z,27.16
2023-05-23T13:33:14.367Z,26.86
2023-05-23T13:35:41.186Z,26.72
2023-05-23T13:38:08.537Z,26.82
2023-05-23T13:40:35.435Z,26.74
2023-05-23T13:43:02.104Z,26.87
2023-05-23T13:45:28.782Z,26.88
2023-05-23T13:47:55.454Z,26.83
2023-05-23T13:50:22.242Z,27.29
2023-05-23T13:52:49.615Z,27.25
2023-05-23T13:55:16.977Z,27.39
2023-05-23T13:57:43.622Z,26.95
2023-05-23T14:00:11.058Z,27.26
2023-05-23T14:02:37.923Z,27.31
2023-05-23T14:05:04.931Z,27.37
2023-05-23T14:07:31.661Z,27.28
2023-05-23T14:09:58.396Z,27.35
2023-05-23T14:12:27.511Z,27.74
2023-05-23T14:14:54.131Z,27.60
2023-05-23T14:17:20.988Z,27.47
2023-05-23T14:19:47.794Z,27.38
2023-05-23T14:22:14.497Z,27.43
2023-05-23T14:24:41.357Z,27.35
2023-05-23T14:27:10.110Z,27.21
2023-05-23T14:29:37.991Z,27.08
2023-05-23T14:32:04.886Z,26.98
2023-05-23T14:34:31.644Z,26.79
2023-05-23T14:36:58.316Z,27.01
2023-05-23T14:39:25.231Z,27.33
2023-05-23T14:41:51.895Z,27.67
2023-05-23T14:44:18.674Z,27.34
2023-05-23T14:46:45.506Z,26.66
2023-05-23T14:49:12.246Z,26.46
2023-05-23T14:51:48.538Z,27.31
2023-05-23T14:54:17.494Z,27.29
2023-05-23T14:56:44.157Z,27.16
2023-05-23T14:59:10.900Z,26.93
2023-05-23T15:01:39.693Z,27.08
2023-05-23T15:04:07.274Z,27.34
2023-05-23T15:06:34.187Z,27.78
2023-05-23T15:09:00.935Z,27.63
2023-05-23T15:11:27.901Z,27.69
2023-05-23T15:13:54.890Z,27.76
2023-05-23T15:16:21.543Z,27.71
2023-05-23T15:18:48.500Z,27.51
2023-05-23T15:21:15.307Z,27.45
2023-05-23T15:23:42.084Z,27.56
2023-05-23T15:26:09.180Z,27.48
2023-05-23T15:28:35.921Z,27.53
2023-05-23T15:31:02.704Z,27.60
2023-05-23T15:33:29.340Z,27.38
2023-05-23T15:35:55.983Z,27.19
2023-05-23T15:38:22.678Z,27.58
2023-05-23T15:40:49.381Z,27.35
2023-05-23T15:43:16.114Z,27.21
2023-05-23T15:45:42.921Z,27.15
2023-05-23T15:48:09.800Z,26.91
2023-05-23T15:50:36.751Z,26.49
2023-05-23T15:53:03.401Z,26.83
2023-05-23T15:55:30.624Z,26.57
2023-05-23T15:57:57.478Z,26.42
2023-05-23T16:00:24.163Z,26.39
2023-05-23T16:02:50.924Z,26.37
2023-05-23T16:05:17.617Z,26.54
2023-05-23T16:07:44.536Z,26.54
2023-05-23T16:10:11.797Z,26.27
2023-05-23T16:12:38.408Z,25.29
2023-05-23T16:15:05.528Z,24.88
2023-05-23T16:17:32.298Z,24.96
2023-05-23T16:19:59.361Z,25.18
2023-05-23T16:22:26.211Z,25.33
2023-05-23T16:24:54.107Z,25.31
2023-05-23T16:27:22.858Z,24.36
2023-05-23T16:29:49.740Z,24.60
2023-05-23T16:32:16.525Z,24.90
2023-05-23T16:34:46.878Z,24.91
2023-05-23T16:37:16.382Z,24.73
2023-05-23T16:39:43.090Z,24.66
2023-05-23T16:42:09.819Z,24.59
2023-05-23T16:44:36.500Z,24.78
2023-05-23T16:47:03.340Z,24.94
2023-05-23T16:49:30.062Z,24.35
2023-05-23T16:51:59.045Z,24.48
2023-05-23T16:54:25.682Z,24.45
2023-05-23T16:56:52.518Z,24.47
2023-05-23T16:59:19.216Z,24.51
2023-05-23T17:01:46.178Z,24.30
2023-05-23T17:04:12.996Z,24.39
2023-05-23T17:06:41.973Z,24.31
2023-05-23T17:09:08.616Z,24.25
2023-05-23T17:11:35.270Z,24.29
2023-05-23T17:14:01.904Z,24.00
2023-05-23T17:16:28.565Z,23.72
2023-05-23T17:18:55.343Z,23.35
2023-05-23T17:21:22.041Z,23.60
2023-05-23T17:23:48.689Z,23.54
2023-05-23T17:26:16.601Z,23.83
2023-05-23T17:28:44.343Z,23.72
2023-05-23T17:31:11.201Z,24.27
2023-05-23T17:33:38.144Z,24.00
2023-05-23T17:36:04.985Z,21.69
2023-05-23T17:38:31.606Z,21.41
2023-05-23T17:40:58.289Z,20.86
2023-05-23T17:43:27.196Z,20.50
2023-05-23T17:45:54.916Z,19.85
2023-05-23T17:48:34.418Z,19.46
2023-05-23T17:51:09.672Z,19.60
2023-05-23T17:53:36.284Z,19.74
2023-05-23T17:56:02.979Z,19.35
2023-05-23T17:58:29.759Z,19.44
2023-05-23T18:00:56.493Z,19.27
2023-05-23T18:03:23.194Z,19.18
2023-05-23T18:05:49.861Z,18.90
2023-05-23T18:08:16.558Z,18.62
2023-05-23T18:10:43.470Z,18.75
2023-05-23T18:13:10.318Z,18.48
2023-05-23T18:15:36.958Z,18.52
2023-05-23T18:18:03.734Z,18.61
2023-05-23T18:20:30.375Z,18.36
2023-05-23T18:22:57.130Z,18.20
2023-05-23T18:25:23.780Z,18.15
2023-05-23T18:27:50.428Z,17.91
2023-05-23T18:30:17.251Z,17.83
2023-05-23T18:32:43.943Z,17.81
2023-05-23T18:35:10.744Z,17.78
2023-05-23T18:37:38.390Z,17.74
2023-05-23T18:40:05.725Z,17.79
2023-05-23T18:42:32.438Z,18.02
2023-05-23T18:44:59.241Z,18.14
2023-05-23T18:47:25.938Z,18.24
2023-05-23T18:49:52.663Z,18.64
2023-05-23T18:52:19.694Z,19.16
2023-05-23T18:54:50.253Z,18.86
2023-05-23T18:57:16.963Z,18.71
2023-05-23T18:59:43.672Z,18.95
2023-05-23T19:02:10.505Z,18.71
2023-05-23T19:04:37.801Z,18.75
2023-05-23T19:07:05.281Z,18.76
2023-05-23T19:09:31.944Z,18.89
2023-05-23T19:11:58.753Z,19.25
2023-05-23T19:14:25.437Z,19.29
2023-05-23T19:16:52.506Z,19.20
2023-05-23T19:19:19.259Z,19.16
2023-05-23T19:21:45.987Z,19.20
2023-05-23T19:24:12.716Z,19.37
2023-05-23T19:26:39.383Z,19.37
2023-05-23T19:29:06.042Z,19.65
2023-05-23T19:31:33.327Z,19.61
2023-05-23T19:34:02.864Z,19.57
2023-05-23T19:36:29.614Z,19.81
2023-05-23T19:38:56.232Z,19.69
2023-05-23T19:41:22.881Z,19.68
2023-05-23T19:43:50.169Z,19.37
2023-05-23T19:46:16.911Z,19.40
2023-05-23T19:48:43.944Z,19.39
2023-05-23T19:51:10.754Z,19.00
2023-05-23T19:53:37.650Z,19.04
2023-05-23T19:56:04.513Z,19.02
2023-05-23T19:58:31.179Z,19.32
2023-05-23T20:00:57.907Z,19.38
2023-05-23T20:03:24.626Z,19.47
2023-05-23T20:05:51.386Z,19.39
2023-05-23T20:08:18.122Z,19.20
2023-05-23T20:10:44.917Z,19.35
2023-05-23T20:13:11.618Z,19.21
2023-05-23T20:15:40.505Z,19.37
2023-05-23T20:18:07.724Z,19.40
2023-05-23T20:20:34.439Z,19.01
2023-05-23T20:23:01.153Z,18.62
2023-05-23T20:25:27.862Z,18.98
2023-05-23T20:27:55.166Z,19.08
2023-05-23T20:30:22.252Z,18.95
2023-05-23T20:32:49.238Z,18.87
2023-05-23T20:35:16.002Z,18.84
2023-05-23T20:37:42.699Z,18.96
2023-05-23T20:40:09.940Z,19.02
2023-05-23T20:42:36.682Z,18.85
2023-05-23T20:45:08.221Z,18.77
2023-05-23T20:47:34.938Z,18.71
2023-05-23T20:50:01.650Z,18.33
2023-05-23T20:52:28.482Z,18.21
2023-05-23T20:54:55.136Z,18.15
2023-05-23T20:57:21.774Z,18.19
2023-05-23T20:59:49.117Z,17.91
2023-05-23T21:02:15.997Z,18.12
2023-05-23T21:04:42.713Z,18.03
2023-05-23T21:07:09.443Z,17.46
2023-05-23T21:09:36.059Z,17.30
2023-05-23T21:12:02.764Z,17.32
2023-05-23T21:14:29.470Z,17.33
2023-05-23T21:16:56.143Z,17.17
2023-05-23T21:19:22.900Z,17.15
2023-05-23T21:21:49.720Z,17.21
2023-05-23T21:24:16.660Z,17.16
2023-05-23T21:26:43.452Z,17.18
2023-05-23T21:29:10.251Z,17.15
2023-05-23T21:31:41.575Z,17.27
2023-05-23T21:34:22.420Z,17.37
2023-05-23T21:36:50.856Z,17.66
2023-05-23T21:39:17.551Z,17.92
2023-05-23T21:41:44.252Z,17.80
2023-05-23T21:44:11.043Z,17.80
2023-05-23T21:46:37.829Z,17.97
2023-05-23T21:49:04.514Z,17.79
2023-05-23T21:51:31.134Z,17.78
2023-05-23T21:53:57.882Z,17.74
2023-05-23T21:56:24.520Z,17.71
2023-05-23T21:58:51.202Z,17.72
2023-05-23T22:01:17.885Z,17.76
2023-05-23T22:03:44.661Z,17.45
2023-05-23T22:06:11.571Z,17.37
2023-05-23T22:08:38.174Z,17.37
2023-05-23T22:11:04.899Z,17.20
2023-05-23T22:13:31.755Z,17.35
2023-05-23T22:15:58.468Z,17.23
2023-05-23T22:18:25.137Z,17.43
2023-05-23T22:20:52.211Z,17.48
2023-05-23T22:23:19.036Z,17.52
2023-05-23T22:25:45.832Z,17.03
2023-05-23T22:28:12.500Z,17.23
2023-05-23T22:30:39.172Z,17.01
2023-05-23T22:33:05.861Z,17.05
2023-05-23T22:35:32.686Z,17.11
2023-05-23T22:37:59.358Z,17.27
2023-05-23T22:40:26.053Z,17.23
2023-05-23T22:42:52.655Z,17.09
2023-05-23T22:45:19.399Z,17.12
2023-05-23T22:47:46.062Z,17.15
2023-05-23T22:50:12.785Z,17.21
2023-05-23T22:52:39.477Z,17.10
2023-05-23T22:55:08.141Z,17.21
2023-05-23T22:57:35.066Z,17.31
2023-05-23T23:00:01.688Z,17.58
2023-05-23T23:02:28.480Z,17.67
2023-05-23T23:04:55.156Z,17.63
2023-05-23T23:07:21.814Z,17.18
2023-05-23T23:09:48.438Z,17.13
2023-05-23T23:12:15.086Z,17.24
2023-05-23T23:14:41.786Z,17.04
2023-05-23T23:17:08.635Z,17.02
2023-05-23T23:19:35.331Z,17.07
2023-05-23T23:22:01.973Z,17.11
2023-05-23T23:24:28.676Z,17.28
2023-05-23T23:26:55.383Z,17.28
2023-05-23T23:29:22.340Z,17.25
2023-05-23T23:31:49.134Z,17.17
2023-05-23T23:34:15.969Z,17.21
2023-05-23T23:36:42.598Z,17.36
2023-05-23T23:39:09.299Z,17.45
2023-05-23T23:41:35.948Z,17.61
2023-05-23T23:44:02.586Z,17.58
2023-05-23T23:46:29.520Z,17.53
2023-05-23T23:48:56.278Z,17.61
2023-05-23T23:51:22.948Z,17.09
2023-05-23T23:53:51.768Z,16.96
2023-05-23T23:56:20.021Z,16.79
2023-05-23T23:58:46.654Z,17.06
